Time;durP1;ratioP1;P1;durP2;ratioP2;P2;SDS_P1;SDS_P2;PMS_P1;PMS_P2;Temp;Humidity;BMP_temperature;BMP_pressure;BME280_temperature;BME280_humidity;BME280_pressure;Samples;Min_cycle;Max_cycle;Signal;HPM_P1;HPM_P2
2022/03/16 00:01:24;;;;;;;9.57;7.05;;;9.10;99.90;;;;;;5075356;28;20478;-81
2022/03/16 00:03:50;;;;;;;10.70;6.47;;;9.10;99.90;;;;;;5075410;28;20073;-81
2022/03/16 00:06:16;;;;;;;9.93;6.57;;;9.10;99.90;;;;;;5075318;28;20023;-81
2022/03/16 00:08:41;;;;;;;9.57;6.80;;;9.10;99.90;;;;;;5093591;28;20031;-81
2022/03/16 00:11:07;;;;;;;8.60;6.68;;;9.10;99.90;;;;;;5075324;28;20024;-81
2022/03/16 00:13:33;;;;;;;9.30;7.40;;;9.10;99.90;;;;;;5075311;28;20069;-81
2022/03/16 00:15:59;;;;;;;9.00;7.10;;;9.10;99.90;;;;;;5093631;28;20023;-81
2022/03/16 00:18:24;;;;;;;10.98;7.15;;;9.10;99.90;;;;;;5075101;28;20020;-81
2022/03/16 00:20:50;;;;;;;8.90;7.18;;;9.10;99.90;;;;;;5093234;28;20060;-81
2022/03/16 00:23:16;;;;;;;10.38;7.15;;;9.10;99.90;;;;;;5093209;28;20024;-81
2022/03/16 00:25:42;;;;;;;11.60;7.97;;;9.10;99.90;;;;;;5075075;28;20016;-81
2022/03/16 00:28:08;;;;;;;9.48;7.22;;;9.10;99.90;;;;;;5075058;28;20035;-81
2022/03/16 00:30:35;;;;;;;10.27;7.97;;;9.10;99.90;;;;;;5093191;28;20024;-81
2022/03/16 00:33:01;;;;;;;9.55;7.30;;;9.10;99.90;;;;;;5075788;28;20028;-81
2022/03/16 00:35:26;;;;;;;10.65;8.07;;;9.10;99.90;;;;;;5075025;28;20038;-81
2022/03/16 00:37:52;;;;;;;10.43;7.38;;;9.10;99.90;;;;;;5093100;28;20043;-81
2022/03/16 00:40:18;;;;;;;12.13;8.15;;;9.10;99.90;;;;;;5075022;28;20055;-81
2022/03/16 00:42:43;;;;;;;9.85;7.72;;;9.10;99.90;;;;;;5093523;28;20028;-81
2022/03/16 00:45:09;;;;;;;10.38;7.75;;;9.10;99.90;;;;;;5074403;28;20031;-81
2022/03/16 00:47:35;;;;;;;11.43;8.50;;;9.10;99.90;;;;;;5074918;28;20020;-81
2022/03/16 00:50:01;;;;;;;10.32;7.80;;;9.10;99.90;;;;;;5092993;28;20020;-81
2022/03/16 00:52:26;;;;;;;10.85;8.20;;;9.10;99.90;;;;;;5093266;28;20131;-81
2022/03/16 00:54:52;;;;;;;10.95;8.48;;;9.10;99.90;;;;;;5092914;28;20051;-81
2022/03/16 00:57:17;;;;;;;9.35;7.78;;;9.10;99.90;;;;;;5074795;28;20081;-81
2022/03/16 00:59:43;;;;;;;11.60;8.65;;;9.10;99.90;;;;;;5092913;28;20035;-81
2022/03/16 01:02:09;;;;;;;12.20;8.57;;;9.10;99.90;;;;;;5093088;28;20527;-81
2022/03/16 01:04:34;;;;;;;12.73;8.88;;;9.10;99.90;;;;;;5092838;28;20020;-81
2022/03/16 01:07:00;;;;;;;11.68;8.68;;;9.10;99.90;;;;;;5074710;28;20027;-81
2022/03/16 01:09:26;;;;;;;12.77;8.13;;;9.00;99.90;;;;;;5074612;28;20074;-81
2022/03/16 01:11:52;;;;;;;13.00;8.60;;;9.10;99.90;;;;;;5092783;28;20028;-81
2022/03/16 01:14:18;;;;;;;11.02;8.20;;;9.10;99.90;;;;;;5074667;28;20114;-81
2022/03/16 01:16:43;;;;;;;14.77;8.88;;;9.10;99.90;;;;;;5092775;28;20025;-81
2022/03/16 01:19:12;;;;;;;11.10;8.48;;;9.10;99.90;;;;;;5092668;28;20104;-81
2022/03/16 01:21:38;;;;;;;12.32;9.30;;;9.10;99.90;;;;;;5051130;28;20033;-81
2022/03/16 01:24:03;;;;;;;11.45;8.45;;;9.10;99.90;;;;;;5052477;28;20357;-81
2022/03/16 01:26:29;;;;;;;13.05;8.02;;;9.10;99.90;;;;;;5051184;28;20021;-81
2022/03/16 01:28:55;;;;;;;14.25;9.07;;;9.10;99.90;;;;;;5051077;28;20129;-81
2022/03/16 01:31:21;;;;;;;15.10;9.48;;;9.10;99.90;;;;;;5051155;28;20030;-81
2022/03/16 01:33:47;;;;;;;12.77;8.77;;;9.10;99.90;;;;;;5051076;28;20115;-81
2022/03/16 01:36:13;;;;;;;11.60;8.48;;;9.10;99.90;;;;;;5051024;28;20059;-81
2022/03/16 01:38:39;;;;;;;13.48;8.90;;;9.10;99.90;;;;;;5052642;28;20060;-81
2022/03/16 01:41:05;;;;;;;13.18;9.50;;;9.10;99.90;;;;;;5051037;28;20052;-81
2022/03/16 01:43:30;;;;;;;12.80;9.18;;;9.10;99.90;;;;;;5052009;28;20052;-81
2022/03/16 01:45:56;;;;;;;15.70;9.50;;;9.10;99.90;;;;;;5051030;28;20057;-81
2022/03/16 01:48:22;;;;;;;15.10;10.10;;;9.10;99.90;;;;;;5050919;28;20112;-81
2022/03/16 01:50:49;;;;;;;13.07;8.77;;;9.10;99.90;;;;;;5050905;28;20031;-81
2022/03/16 01:53:16;;;;;;;14.93;9.65;;;9.10;99.90;;;;;;5052207;28;20037;-81
2022/03/16 01:55:42;;;;;;;13.38;9.65;;;9.10;99.90;;;;;;5050880;28;20108;-81
2022/03/16 01:58:09;;;;;;;15.45;9.65;;;9.00;99.90;;;;;;5054230;28;20457;-81
2022/03/16 02:00:35;;;;;;;13.40;9.48;;;9.10;99.90;;;;;;5054427;28;20021;-81
2022/03/16 02:03:01;;;;;;;17.67;10.05;;;9.10;99.90;;;;;;5055610;28;20443;-81
2022/03/16 02:05:29;;;;;;;16.30;9.75;;;9.00;99.90;;;;;;5055642;28;20057;-81
2022/03/16 02:07:56;;;;;;;16.65;10.25;;;9.00;99.90;;;;;;5054251;28;20441;-81
2022/03/16 02:10:22;;;;;;;14.50;9.70;;;9.10;99.90;;;;;;5054237;28;20021;-81
2022/03/16 02:12:51;;;;;;;16.02;9.65;;;9.00;99.90;;;;;;5055482;28;20124;-81
2022/03/16 02:15:19;;;;;;;15.85;9.60;;;9.00;99.90;;;;;;5055383;28;20029;-81
2022/03/16 02:17:45;;;;;;;14.75;9.23;;;9.00;99.90;;;;;;5055372;28;20033;-81
2022/03/16 02:20:11;;;;;;;15.57;10.07;;;9.00;99.90;;;;;;5071636;28;20551;-81
2022/03/16 02:23:07;;;;;;;17.17;9.70;;;9.00;99.90;;;;;;5077279;28;20084;-81
2022/03/16 02:25:46;;;;;;;16.70;10.35;;;9.00;99.90;;;;;;5055986;28;20043;-81
2022/03/16 02:28:12;;;;;;;16.48;10.27;;;9.00;99.90;;;;;;5077211;28;20471;-81
2022/03/16 02:30:37;;;;;;;16.70;10.15;;;9.00;99.90;;;;;;5077552;28;20035;-81
2022/03/16 02:33:03;;;;;;;16.75;10.32;;;9.00;99.90;;;;;;5077190;28;20111;-81
2022/03/16 02:35:31;;;;;;;17.55;10.82;;;9.00;99.90;;;;;;5077187;28;20387;-81
2022/03/16 02:37:58;;;;;;;15.73;10.23;;;9.00;99.90;;;;;;5095255;28;20411;-81
2022/03/16 02:40:24;;;;;;;15.57;10.43;;;9.00;99.90;;;;;;5076999;28;20024;-81
2022/03/16 02:42:50;;;;;;;20.00;10.68;;;9.00;99.90;;;;;;5095071;28;20030;-81
2022/03/16 02:45:17;;;;;;;17.17;10.18;;;9.00;99.90;;;;;;5076917;28;20511;-81
2022/03/16 02:47:44;;;;;;;17.02;10.15;;;9.00;99.90;;;;;;5076870;28;20371;-81
2022/03/16 02:50:12;;;;;;;16.80;10.38;;;9.00;99.90;;;;;;5095251;28;20019;-81
2022/03/16 02:52:38;;;;;;;18.70;10.70;;;9.00;99.90;;;;;;5094923;28;20024;-81
2022/03/16 02:55:06;;;;;;;19.15;10.02;;;9.00;99.90;;;;;;5076816;28;20028;-81
2022/03/16 02:57:31;;;;;;;16.90;9.85;;;9.00;99.90;;;;;;5076716;28;20100;-81
2022/03/16 02:59:57;;;;;;;17.65;10.73;;;9.00;99.90;;;;;;5094835;28;20086;-81
2022/03/16 03:02:23;;;;;;;18.67;10.98;;;9.00;99.90;;;;;;5094979;28;20035;-81
2022/03/16 03:04:49;;;;;;;17.83;10.35;;;9.00;99.90;;;;;;5094773;28;20118;-81
2022/03/16 03:07:14;;;;;;;18.25;10.57;;;9.00;99.90;;;;;;5076571;28;20106;-81
2022/03/16 03:09:40;;;;;;;19.27;10.63;;;9.00;99.90;;;;;;5094524;28;20020;-81
2022/03/16 03:12:06;;;;;;;18.17;10.75;;;9.00;99.90;;;;;;5076468;28;20388;-81
2022/03/16 03:14:32;;;;;;;20.58;10.55;;;9.00;99.90;;;;;;5076317;28;20123;-81
2022/03/16 03:16:58;;;;;;;18.27;10.93;;;9.00;99.90;;;;;;5076306;28;20051;-81
2022/03/16 03:19:24;;;;;;;21.58;11.45;;;9.00;99.90;;;;;;5075977;28;20032;-81
2022/03/16 03:21:50;;;;;;;20.50;10.55;;;9.00;99.90;;;;;;5094451;28;20030;-81
2022/03/16 03:24:16;;;;;;;19.67;11.85;;;9.00;99.90;;;;;;5076263;28;20020;-81
2022/03/16 03:26:42;;;;;;;20.20;11.40;;;9.00;99.90;;;;;;5094318;28;20027;-81
2022/03/16 03:29:07;;;;;;;23.70;11.75;;;9.00;99.90;;;;;;5076136;28;20123;-81
2022/03/16 03:31:34;;;;;;;19.17;11.02;;;9.00;99.90;;;;;;5076090;28;20027;-81
2022/03/16 03:34:00;;;;;;;20.50;11.88;;;9.00;99.90;;;;;;5075998;28;20024;-81
2022/03/16 03:36:26;;;;;;;21.10;11.95;;;9.00;99.90;;;;;;5075902;28;20487;-81
2022/03/16 03:38:51;;;;;;;23.92;12.00;;;9.00;99.90;;;;;;5075974;28;20016;-81
2022/03/16 03:41:17;;;;;;;21.83;12.02;;;9.00;99.90;;;;;;5094100;28;20066;-81
2022/03/16 03:43:43;;;;;;;21.17;11.15;;;9.00;99.90;;;;;;5075813;28;20020;-81
2022/03/16 03:46:08;;;;;;;24.67;12.55;;;9.00;99.90;;;;;;5075850;28;20039;-81
2022/03/16 03:48:34;;;;;;;21.08;11.18;;;9.00;99.90;;;;;;5075691;28;20475;-81
2022/03/16 03:51:00;;;;;;;21.33;12.60;;;9.00;99.90;;;;;;5075724;28;20471;-81
2022/03/16 03:53:26;;;;;;;24.63;12.38;;;9.00;99.90;;;;;;5075699;28;20047;-81
2022/03/16 03:55:51;;;;;;;23.30;12.18;;;9.00;99.90;;;;;;5093838;28;20028;-81
2022/03/16 03:58:17;;;;;;;19.92;11.50;;;9.00;99.90;;;;;;5093735;28;20028;-81
2022/03/16 04:00:43;;;;;;;22.83;11.82;;;9.00;99.90;;;;;;5075534;28;20021;-82
2022/03/16 04:03:08;;;;;;;24.80;12.25;;;9.00;99.90;;;;;;5075402;28;20024;-81
2022/03/16 04:05:34;;;;;;;23.38;12.48;;;8.90;99.90;;;;;;5075444;28;20016;-81
2022/03/16 04:08:00;;;;;;;23.67;12.93;;;8.90;99.90;;;;;;5075300;28;20027;-81
2022/03/16 04:10:25;;;;;;;27.42;12.82;;;9.00;99.90;;;;;;5093481;28;20028;-81
2022/03/16 04:12:51;;;;;;;23.95;12.27;;;9.00;99.90;;;;;;5075300;28;20024;-81
2022/03/16 04:15:20;;;;;;;25.23;13.07;;;9.00;99.90;;;;;;5075266;28;20454;-81
2022/03/16 04:17:46;;;;;;;24.15;13.68;;;9.00;99.90;;;;;;5093382;28;20044;-81
2022/03/16 04:20:12;;;;;;;23.50;13.70;;;9.00;99.90;;;;;;5074147;28;20052;-81
2022/03/16 04:22:38;;;;;;;23.98;13.20;;;9.00;99.90;;;;;;5093271;28;20499;-81
2022/03/16 04:25:04;;;;;;;26.25;12.93;;;8.90;99.90;;;;;;5075136;28;20050;-81
2022/03/16 04:27:30;;;;;;;22.90;13.63;;;9.00;99.90;;;;;;5093551;28;20039;-81
2022/03/16 04:29:56;;;;;;;25.90;13.93;;;9.00;99.90;;;;;;5075105;28;20027;-81
2022/03/16 04:32:22;;;;;;;27.75;14.20;;;9.00;99.90;;;;;;5075056;28;20035;-81
2022/03/16 04:34:47;;;;;;;26.38;13.77;;;9.00;99.90;;;;;;5075116;28;20040;-81
2022/03/16 04:37:13;;;;;;;27.15;13.90;;;9.00;99.90;;;;;;5093135;28;20077;-81
2022/03/16 04:39:39;;;;;;;25.85;14.50;;;9.00;99.90;;;;;;5075011;28;20491;-81
2022/03/16 04:42:05;;;;;;;29.52;15.25;;;9.00;99.90;;;;;;5075146;28;20486;-81
2022/03/16 04:44:31;;;;;;;22.73;13.27;;;9.00;99.90;;;;;;5093025;28;20016;-81
2022/03/16 04:46:57;;;;;;;30.05;14.90;;;8.90;99.90;;;;;;5093020;28;20103;-81
2022/03/16 04:49:23;;;;;;;24.92;14.00;;;9.00;99.90;;;;;;5074902;28;20498;-81
2022/03/16 04:51:48;;;;;;;25.58;13.30;;;8.90;99.90;;;;;;5093242;28;20510;-81
2022/03/16 04:54:15;;;;;;;26.83;14.70;;;8.90;99.90;;;;;;5092950;28;20053;-81
2022/03/16 04:56:41;;;;;;;26.70;14.60;;;8.90;99.90;;;;;;5074764;28;20506;-81
2022/03/16 04:59:06;;;;;;;31.73;14.90;;;8.90;99.90;;;;;;5092894;28;20028;-81
2022/03/16 05:01:32;;;;;;;29.30;15.43;;;8.90;99.90;;;;;;5074650;28;20078;-81
2022/03/16 05:03:58;;;;;;;26.45;14.07;;;8.90;99.90;;;;;;5074690;28;20103;-81
2022/03/16 05:06:23;;;;;;;31.08;15.48;;;9.00;99.90;;;;;;5092834;28;20026;-81
2022/03/16 05:08:50;;;;;;;31.05;14.68;;;8.90;99.90;;;;;;5093028;28;20027;-81
2022/03/16 05:11:17;;;;;;;32.90;16.33;;;8.90;99.90;;;;;;5074728;28;20372;-81
2022/03/16 05:13:43;;;;;;;27.02;14.77;;;9.00;99.90;;;;;;5074659;28;20100;-80
2022/03/16 05:16:09;;;;;;;28.77;15.30;;;8.90;99.90;;;;;;5074551;28;20032;-81
2022/03/16 05:18:35;;;;;;;30.20;15.07;;;8.90;99.90;;;;;;5092705;28;20028;-81
2022/03/16 05:21:03;;;;;;;30.05;15.57;;;8.90;99.90;;;;;;5092531;28;20125;-81
2022/03/16 05:23:30;;;;;;;31.17;15.77;;;8.90;99.90;;;;;;5092584;28;20024;-81
2022/03/16 05:25:56;;;;;;;26.92;14.88;;;8.90;99.90;;;;;;5074464;28;20502;-81
2022/03/16 05:28:22;;;;;;;27.35;14.82;;;8.90;99.90;;;;;;5074377;28;20020;-81
2022/03/16 05:30:47;;;;;;;29.40;15.40;;;8.90;99.90;;;;;;5074944;28;20068;-81
2022/03/16 05:33:13;;;;;;;31.60;15.55;;;8.90;99.90;;;;;;5078310;28;20024;-81
2022/03/16 05:35:41;;;;;;;31.75;15.30;;;8.90;99.90;;;;;;5078228;28;20032;-81
2022/03/16 05:38:08;;;;;;;31.17;16.25;;;8.90;99.90;;;;;;5078169;28;20028;-81
2022/03/16 05:40:34;;;;;;;28.80;16.33;;;8.90;99.90;;;;;;5078413;28;20024;-81
2022/03/16 05:43:00;;;;;;;32.58;16.80;;;8.90;99.90;;;;;;5077988;28;20051;-80
2022/03/16 05:45:26;;;;;;;31.77;16.67;;;8.90;99.90;;;;;;5078286;28;20062;-81
2022/03/16 05:47:51;;;;;;;30.45;15.52;;;8.90;99.90;;;;;;5096222;28;20024;-80
2022/03/16 05:50:18;;;;;;;33.05;17.45;;;8.90;99.90;;;;;;5096759;28;20099;-81
2022/03/16 05:52:46;;;;;;;27.75;15.25;;;8.90;99.90;;;;;;5077920;28;20552;-81
2022/03/16 05:55:13;;;;;;;30.08;15.52;;;8.90;99.90;;;;;;5077911;28;20020;-81
2022/03/16 05:57:40;;;;;;;32.15;16.73;;;8.90;99.90;;;;;;5077903;28;20550;-81
2022/03/16 06:00:08;;;;;;;32.72;16.70;;;8.90;99.90;;;;;;5096050;28;20157;-81
2022/03/16 06:02:34;;;;;;;33.80;16.35;;;8.90;99.90;;;;;;5078040;28;20073;-81
2022/03/16 06:04:59;;;;;;;35.28;17.33;;;8.90;99.90;;;;;;5078017;28;20114;-81
2022/03/16 06:07:25;;;;;;;35.85;17.98;;;8.90;99.90;;;;;;5077932;28;20023;-81
2022/03/16 06:09:51;;;;;;;28.13;15.75;;;8.90;99.90;;;;;;5078031;28;20031;-81
2022/03/16 06:12:16;;;;;;;34.85;17.42;;;8.90;99.90;;;;;;5096089;28;20395;-81
2022/03/16 06:14:42;;;;;;;32.63;17.10;;;8.90;99.90;;;;;;5077865;28;20487;-81
2022/03/16 06:17:08;;;;;;;34.63;17.15;;;8.90;99.90;;;;;;5077848;28;20110;-81
2022/03/16 06:19:33;;;;;;;33.75;17.33;;;8.90;99.90;;;;;;5077574;28;20474;-80
2022/03/16 06:21:59;;;;;;;33.30;17.83;;;8.90;99.90;;;;;;5095824;28;20466;-81
2022/03/16 06:24:25;;;;;;;33.38;17.30;;;8.90;99.90;;;;;;5077509;28;20497;-81
2022/03/16 06:26:50;;;;;;;33.75;18.00;;;8.90;99.90;;;;;;5077269;28;20074;-81
2022/03/16 06:29:16;;;;;;;32.10;17.98;;;8.90;99.90;;;;;;5095627;28;20107;-81
2022/03/16 06:31:41;;;;;;;34.75;18.17;;;8.90;99.90;;;;;;5077222;28;20115;-81
2022/03/16 06:34:07;;;;;;;32.10;17.75;;;8.90;99.90;;;;;;5077137;28;20035;-81
2022/03/16 06:36:33;;;;;;;37.63;17.17;;;8.90;99.90;;;;;;5077438;28;20020;-81
2022/03/16 06:38:58;;;;;;;36.85;19.13;;;8.90;99.90;;;;;;5077456;28;20020;-80
2022/03/16 06:41:24;;;;;;;32.70;18.30;;;8.90;99.90;;;;;;5095555;28;20464;-81
2022/03/16 06:43:50;;;;;;;32.25;18.25;;;8.90;99.90;;;;;;5076411;28;20031;-81
2022/03/16 06:46:16;;;;;;;34.88;17.63;;;8.90;99.90;;;;;;5077295;28;20031;-81
2022/03/16 06:48:41;;;;;;;32.40;18.00;;;8.90;99.90;;;;;;5095385;28;20059;-81
2022/03/16 06:51:07;;;;;;;33.08;18.20;;;8.90;99.90;;;;;;5077124;28;20111;-81
2022/03/16 06:53:33;;;;;;;34.38;19.13;;;8.90;99.90;;;;;;5094966;28;20097;-81
2022/03/16 06:55:59;;;;;;;37.60;19.38;;;8.90;99.90;;;;;;5076762;28;20129;-81
2022/03/16 06:58:25;;;;;;;35.97;19.30;;;8.90;99.90;;;;;;5076725;28;20019;-81
2022/03/16 07:00:50;;;;;;;36.78;20.15;;;8.90;99.90;;;;;;5076653;28;20032;-81
2022/03/16 07:03:16;;;;;;;34.95;19.63;;;8.90;99.90;;;;;;5076620;28;20121;-81
2022/03/16 07:05:42;;;;;;;33.13;19.65;;;8.90;99.90;;;;;;5094763;28;20023;-81
2022/03/16 07:08:10;;;;;;;35.03;19.98;;;8.90;99.90;;;;;;5076524;28;20024;-81
2022/03/16 07:10:38;;;;;;;35.63;19.50;;;8.90;99.90;;;;;;5076442;28;20099;-81
2022/03/16 07:13:04;;;;;;;35.10;19.40;;;8.90;99.90;;;;;;5076381;28;20097;-81
2022/03/16 07:15:32;;;;;;;33.38;19.45;;;8.90;99.90;;;;;;5076444;28;20031;-81
2022/03/16 07:17:58;;;;;;;35.13;20.08;;;8.90;99.90;;;;;;5076390;28;20081;-81
2022/03/16 07:20:24;;;;;;;37.30;21.23;;;8.90;99.90;;;;;;5076108;28;20059;-81
2022/03/16 07:23:04;;;;;;;34.15;20.02;;;8.90;99.90;;;;;;5094367;28;20024;-81
2022/03/16 07:25:30;;;;;;;36.83;20.38;;;8.90;99.90;;;;;;5076170;28;20023;-81
2022/03/16 07:27:55;;;;;;;36.28;20.23;;;8.90;99.90;;;;;;5076110;28;20395;-81
2022/03/16 07:30:21;;;;;;;33.42;20.27;;;8.90;99.90;;;;;;5076136;28;20024;-81
2022/03/16 07:32:47;;;;;;;32.53;18.85;;;8.90;99.90;;;;;;5076046;28;20020;-81
2022/03/16 07:35:13;;;;;;;39.00;20.65;;;8.90;99.90;;;;;;5075987;28;20576;-81
2022/03/16 07:37:39;;;;;;;36.25;20.33;;;8.90;99.90;;;;;;5075961;28;20048;-81
2022/03/16 07:40:06;;;;;;;39.67;21.65;;;8.90;99.90;;;;;;5094083;28;20028;-81
2022/03/16 07:42:32;;;;;;;36.22;19.65;;;8.90;99.90;;;;;;5094282;28;20390;-81
2022/03/16 07:44:58;;;;;;;36.58;21.27;;;8.90;99.90;;;;;;5093933;28;20024;-81
2022/03/16 07:47:27;;;;;;;38.92;20.50;;;8.90;99.90;;;;;;5075814;28;20027;-82
2022/03/16 07:49:53;;;;;;;36.85;21.70;;;8.90;99.90;;;;;;5094267;28;20441;-82
2022/03/16 07:52:21;;;;;;;32.90;19.52;;;8.90;99.90;;;;;;5075649;28;20078;-82
2022/03/16 07:54:47;;;;;;;33.00;19.90;;;8.90;99.90;;;;;;5093874;28;20048;-82
2022/03/16 07:57:12;;;;;;;36.00;19.98;;;8.90;99.90;;;;;;5075594;28;20510;-82
2022/03/16 07:59:38;;;;;;;38.58;20.42;;;8.90;99.90;;;;;;5093728;28;20032;-82
2022/03/16 08:02:04;;;;;;;35.85;21.67;;;8.90;99.90;;;;;;5075482;28;20094;-82
2022/03/16 08:04:30;;;;;;;36.95;21.60;;;9.00;99.90;;;;;;5093687;28;20069;-82
2022/03/16 08:06:55;;;;;;;38.13;21.70;;;9.00;99.90;;;;;;5075468;28;20017;-82
2022/03/16 08:09:21;;;;;;;37.90;21.67;;;9.00;99.90;;;;;;5075491;28;20031;-82
2022/03/16 08:11:46;;;;;;;35.17;21.25;;;9.00;99.90;;;;;;5075490;28;20028;-81
2022/03/16 08:14:12;;;;;;;38.75;21.63;;;9.00;99.90;;;;;;5075409;28;20111;-82
2022/03/16 08:16:39;;;;;;;36.88;21.70;;;9.00;99.90;;;;;;5075609;28;20109;-82
2022/03/16 08:19:04;;;;;;;42.80;24.25;;;9.00;99.90;;;;;;5093921;28;20323;-81
2022/03/16 08:21:30;;;;;;;37.97;23.05;;;9.00;99.90;;;;;;5093532;28;20119;-81
2022/03/16 08:23:56;;;;;;;36.80;22.92;;;9.00;99.90;;;;;;5075077;28;20085;-82
2022/03/16 08:26:24;;;;;;;38.13;23.05;;;9.10;99.90;;;;;;5075584;28;20093;-81
2022/03/16 08:28:50;;;;;;;39.00;23.38;;;9.10;99.90;;;;;;5093279;28;20017;-82
2022/03/16 08:31:17;;;;;;;36.60;22.40;;;9.10;99.90;;;;;;5075214;28;20465;-81
2022/03/16 08:33:43;;;;;;;39.05;22.60;;;9.10;99.90;;;;;;5075101;28;20035;-81
2022/03/16 08:36:09;;;;;;;40.33;23.60;;;9.10;99.90;;;;;;5075215;28;20027;-81
2022/03/16 08:38:37;;;;;;;35.85;22.67;;;9.10;99.90;;;;;;5075270;28;20491;-82
2022/03/16 08:41:07;;;;;;;39.38;23.42;;;9.00;99.90;;;;;;5075207;28;20028;-81
2022/03/16 08:43:34;;;;;;;33.60;21.17;;;9.10;99.90;;;;;;5093559;28;20471;-81
2022/03/16 08:46:00;;;;;;;38.75;21.88;;;9.10;99.90;;;;;;5093561;28;20013;-82
2022/03/16 08:48:26;;;;;;;37.90;22.92;;;9.10;99.90;;;;;;5093552;28;20474;-82
2022/03/16 08:50:52;;;;;;;37.28;22.52;;;9.10;99.90;;;;;;5093174;28;20024;-81
2022/03/16 08:53:18;;;;;;;37.35;22.02;;;9.10;99.90;;;;;;5075164;28;20031;-81
2022/03/16 08:55:44;;;;;;;36.13;22.05;;;9.10;99.90;;;;;;5093239;28;20410;-81
2022/03/16 08:58:09;;;;;;;38.78;23.27;;;9.10;99.90;;;;;;5093226;28;20103;-81
2022/03/16 09:00:37;;;;;;;37.25;23.50;;;9.10;99.90;;;;;;5075073;28;20020;-81
2022/03/16 09:03:03;;;;;;;39.75;23.15;;;9.10;99.90;;;;;;5074973;28;20048;-81
2022/03/16 09:05:28;;;;;;;36.13;22.98;;;9.10;99.90;;;;;;5074989;28;20032;-81
2022/03/16 09:07:54;;;;;;;35.30;22.35;;;9.10;99.90;;;;;;5096703;28;20085;-82
2022/03/16 09:10:20;;;;;;;38.03;22.40;;;9.10;99.90;;;;;;5078648;28;20028;-82
2022/03/16 09:12:46;;;;;;;36.22;21.98;;;9.10;99.90;;;;;;5078653;28;20032;-82
2022/03/16 09:15:12;;;;;;;40.70;22.55;;;9.10;99.90;;;;;;5078707;28;20054;-81
2022/03/16 09:17:38;;;;;;;39.25;22.88;;;9.10;99.90;;;;;;5096695;28;20102;-82
2022/03/16 09:20:04;;;;;;;39.17;23.45;;;9.10;99.90;;;;;;5078194;28;20048;-82
2022/03/16 09:22:30;;;;;;;37.25;23.73;;;9.10;99.90;;;;;;5078357;28;20073;-81
2022/03/16 09:24:56;;;;;;;40.97;24.85;;;9.10;99.90;;;;;;5096708;28;20040;-81
2022/03/16 09:27:25;;;;;;;45.17;27.17;;;9.10;99.90;;;;;;5078471;28;20073;-81
2022/03/16 09:29:53;;;;;;;39.05;24.10;;;9.10;99.90;;;;;;5096571;28;20103;-82
2022/03/16 09:32:21;;;;;;;35.90;22.58;;;9.20;99.90;;;;;;5078290;28;20028;-82
2022/03/16 09:34:47;;;;;;;36.05;21.83;;;9.10;99.90;;;;;;5096567;28;20387;-83
2022/03/16 09:37:14;;;;;;;34.58;22.35;;;9.10;99.90;;;;;;5078304;28;20487;-82
2022/03/16 09:39:40;;;;;;;39.70;25.60;;;9.10;99.90;;;;;;5096781;28;20476;-82
2022/03/16 09:42:06;;;;;;;40.30;24.33;;;9.10;99.90;;;;;;5078134;28;20109;-82
2022/03/16 09:44:32;;;;;;;39.00;24.25;;;9.10;99.90;;;;;;5096749;28;20027;-82
2022/03/16 09:46:58;;;;;;;34.50;22.73;;;9.10;99.90;;;;;;5096592;28;20097;-82
2022/03/16 09:49:28;;;;;;;35.85;22.80;;;9.10;99.90;;;;;;5078041;28;20411;-82
2022/03/16 09:51:54;;;;;;;37.72;22.92;;;9.20;99.90;;;;;;5079105;28;20452;-82
2022/03/16 09:54:21;;;;;;;35.22;22.67;;;9.20;99.90;;;;;;5077907;28;20021;-82
2022/03/16 09:56:48;;;;;;;38.92;24.30;;;9.20;99.90;;;;;;5077857;28;20518;-82
2022/03/16 09:59:14;;;;;;;41.13;24.75;;;9.10;99.90;;;;;;5077788;28;20109;-82
2022/03/16 10:01:43;;;;;;;40.40;23.85;;;9.20;99.90;;;;;;5060973;28;20487;-82
2022/03/16 10:04:09;;;;;;;34.38;22.60;;;9.20;99.90;;;;;;5077767;28;20028;-82
2022/03/16 10:06:36;;;;;;;40.13;24.90;;;9.20;99.90;;;;;;5077831;28;20113;-82
2022/03/16 10:15:04;;;;;;;37.10;22.20;;;9.20;99.90;;;;;;5096272;28;20035;-82
2022/03/16 10:17:45;;;;;;;38.60;24.23;;;9.20;99.90;;;;;;5076701;28;20028;-82
2022/03/16 10:20:18;;;;;;;36.28;23.23;;;9.20;99.90;;;;;;5077154;28;20044;-82
2022/03/16 10:22:59;;;;;;;35.20;22.17;;;9.20;99.90;;;;;;5095775;28;20380;-83
2022/03/16 10:25:27;;;;;;;33.60;21.52;;;9.30;99.90;;;;;;5077434;28;20024;-82
2022/03/16 10:27:53;;;;;;;33.45;22.65;;;9.20;99.90;;;;;;5077362;28;20020;-82
2022/03/16 10:30:20;;;;;;;32.65;22.15;;;9.20;99.90;;;;;;5077253;28;20020;-82
2022/03/16 10:32:55;;;;;;;31.27;21.17;;;9.30;99.90;;;;;;5095339;28;20053;-83
2022/03/16 10:35:23;;;;;;;32.65;21.45;;;9.30;99.90;;;;;;5077211;28;20039;-82
2022/03/16 10:37:49;;;;;;;38.75;21.13;;;9.30;99.90;;;;;;5077239;28;20023;-82
2022/03/16 10:40:20;;;;;;;34.70;21.73;;;9.30;99.90;;;;;;5095276;28;20530;-82
2022/03/16 10:48:21;;;;;;;33.65;21.60;;;9.30;99.90;;;;;;5095710;28;20054;-82
2022/03/16 10:50:50;;;;;;;30.58;20.15;;;9.30;99.90;;;;;;5077786;28;20490;-82
2022/03/16 10:53:18;;;;;;;31.63;20.88;;;9.30;99.90;;;;;;5076899;28;20024;-82
2022/03/16 10:55:46;;;;;;;31.15;20.92;;;9.30;99.90;;;;;;5077858;28;20451;-82
2022/03/16 10:58:12;;;;;;;32.67;20.50;;;9.30;99.90;;;;;;5095001;28;20047;-82
2022/03/16 11:00:40;;;;;;;35.63;20.85;;;9.30;99.90;;;;;;5076566;28;20024;-82
2022/03/16 11:03:07;;;;;;;35.42;19.85;;;9.30;99.90;;;;;;5076501;28;20024;-82
2022/03/16 11:05:37;;;;;;;28.05;19.30;;;9.30;99.90;;;;;;5094725;28;20131;-83
2022/03/16 11:08:09;;;;;;;32.42;20.60;;;9.30;99.90;;;;;;5076439;28;20016;-82
2022/03/16 11:10:40;;;;;;;29.83;19.98;;;9.30;99.90;;;;;;5076484;28;20072;-83
2022/03/16 11:15:52;;;;;;;30.83;20.02;;;9.30;99.90;;;;;;5094889;28;20115;-82
2022/03/16 11:18:18;;;;;;;25.95;18.80;;;9.30;99.90;;;;;;5094411;28;20060;-82
2022/03/16 11:20:49;;;;;;;28.20;19.52;;;9.30;99.90;;;;;;5076025;28;20537;-83
2022/03/16 11:26:25;;;;;;;28.92;18.75;;;9.30;99.90;;;;;;5094964;28;20081;-82
2022/03/16 11:29:00;;;;;;;25.52;18.02;;;9.30;99.90;;;;;;5094068;28;20029;-82
2022/03/16 11:31:30;;;;;;;26.13;18.10;;;9.30;99.90;;;;;;5076060;28;20031;-82
2022/03/16 11:33:59;;;;;;;27.60;18.17;;;9.30;99.90;;;;;;5075986;28;20024;-83
2022/03/16 11:36:38;;;;;;;29.33;18.42;;;9.40;99.90;;;;;;5075944;28;20020;-83
2022/03/16 11:39:14;;;;;;;25.48;18.27;;;9.40;99.90;;;;;;5094189;28;20104;-82
2022/03/16 11:41:54;;;;;;;27.40;17.80;;;9.40;99.90;;;;;;5094065;28;20030;-84
2022/03/16 11:44:29;;;;;;;27.45;18.83;;;9.40;99.90;;;;;;5075999;28;20114;-83
2022/03/16 11:47:09;;;;;;;24.65;17.75;;;9.50;99.90;;;;;;5075876;28;20024;-83
2022/03/16 11:49:38;;;;;;;24.40;17.08;;;9.50;99.90;;;;;;5075925;28;20023;-83
2022/03/16 11:52:05;;;;;;;28.30;16.98;;;9.50;99.90;;;;;;5075725;28;20540;-83
2022/03/16 11:54:48;;;;;;;22.92;16.05;;;9.40;99.90;;;;;;5076188;28;20074;-83
2022/03/16 11:57:48;;;;;;;23.35;16.25;;;9.50;99.90;;;;;;5075821;28;20379;-82
2022/03/16 12:00:16;;;;;;;31.92;21.73;;;9.50;99.90;;;;;;5075495;28;20035;-85
2022/03/16 12:02:42;;;;;;;44.78;21.40;;;9.50;99.90;;;;;;5077219;28;20024;-82
2022/03/16 12:05:10;;;;;;;42.80;22.25;;;9.70;99.90;;;;;;5075355;28;20024;-83
2022/03/16 12:07:36;;;;;;;41.22;22.80;;;9.70;99.90;;;;;;5075977;28;20467;-83
2022/03/16 12:10:07;;;;;;;42.03;22.63;;;9.70;99.90;;;;;;5093897;28;20038;-83
2022/03/16 12:12:51;;;;;;;34.03;21.35;;;9.60;99.90;;;;;;5075340;28;20448;-83
2022/03/16 12:15:24;;;;;;;31.30;21.05;;;9.60;99.90;;;;;;5093810;28;20016;-83
2022/03/16 12:17:52;;;;;;;29.58;20.17;;;9.60;99.90;;;;;;5093510;28;20050;-83
2022/03/16 12:20:26;;;;;;;33.85;20.73;;;9.60;99.90;;;;;;5093166;28;20048;-83
2022/03/16 12:22:56;;;;;;;36.30;21.17;;;9.60;99.90;;;;;;5093248;28;20028;-83
2022/03/16 12:25:25;;;;;;;33.22;19.73;;;9.50;99.90;;;;;;5093375;28;20024;-83
2022/03/16 12:31:04;;;;;;;24.42;18.45;;;9.60;99.90;;;;;;5093426;28;20464;-83
2022/03/16 12:33:39;;;;;;;27.02;18.80;;;9.60;99.90;;;;;;5075083;28;20501;-83
2022/03/16 12:36:11;;;;;;;31.52;19.05;;;9.60;99.90;;;;;;5075088;28;20054;-83
2022/03/16 12:38:39;;;;;;;30.42;18.90;;;9.60;99.90;;;;;;5093374;28;20107;-83
2022/03/16 12:43:56;;;;;;;26.60;18.10;;;9.50;99.90;;;;;;5093329;28;20085;-83
2022/03/16 12:46:33;;;;;;;24.92;17.05;;;9.60;99.90;;;;;;5074941;28;20502;-83
2022/03/16 12:49:05;;;;;;;28.08;18.10;;;9.60;99.90;;;;;;5074915;28;20020;-83
2022/03/16 12:51:51;;;;;;;27.75;17.55;;;9.60;99.90;;;;;;5074828;28;20070;-83
2022/03/16 12:54:23;;;;;;;29.42;18.17;;;9.60;99.90;;;;;;5075115;28;20054;-83
2022/03/16 12:56:51;;;;;;;25.88;16.85;;;9.60;99.90;;;;;;5075221;28;20024;-83
2022/03/16 12:59:26;;;;;;;29.70;18.13;;;9.70;99.90;;;;;;5074744;28;20026;-83
2022/03/16 13:01:54;;;;;;;27.80;16.85;;;9.70;99.90;;;;;;5074625;28;20028;-83